Data for 03/01/2009

Time Sea-Level Adjusted Pressure Absolute Pressure Temperature Relative Humidity Dew Point   
(mb) (inHg) (mb) (inHg) (C) (F) (%) (C) (F)
00:05 1025 30.27 854 25.22 -4.7 23.6 73 -8.8 16.1
00:10 1025 30.27 854 25.22 -4.4 24.1 67 -9.6 14.8
00:15 1025 30.27 854 25.22 -3.8 25.2 66 -9.2 15.4
00:20 1024 30.24 854 25.22 -3.6 25.6 66 -9.1 15.6
00:25 1024 30.24 854 25.22 -3.8 25.2 67 -9 15.8
00:30 1025 30.27 854 25.22 -4.2 24.4 70 -8.9 15.9
00:35 1025 30.27 854 25.22 -4.2 24.5 71 -8.8 16.2
00:40 1025 30.27 854 25.22 -3.9 25 72 -8.2 17.2
00:45 1025 30.27 854 25.22 -3.8 25.2 73 -8 17.7
00:50 1025 30.27 854 25.22 -3.8 25.2 73 -7.9 17.8
00:55 1025 30.27 854 25.22 -4 24.9 74 -8 17.6
01:00 1025 30.27 854 25.22 -4.6 23.7 77 -8 17.5
01:05 1025 30.27 854 25.22 -4.2 24.4 75 -8.1 17.4
01:10 1025 30.27 854 25.22 -4.2 24.4 75 -8.1 17.5
01:15 1024 30.24 854 25.22 -4.2 24.5 75 -7.9 17.7
01:20 1024 30.24 853 25.19 -3.7 25.3 69 -8.6 16.6
01:25 1024 30.24 853 25.19 -4.3 24.2 72 -8.7 16.3
01:30 1024 30.24 853 25.19 -4.9 23.1 69 -9.7 14.5
01:35 1024 30.24 853 25.19 -4.5 23.8 70 -9.2 15.4
01:40 1024 30.24 853 25.19 -4.1 24.7 66 -9.6 14.8
01:45 1024 30.24 853 25.19 -3.8 25.1 64 -9.8 14.4
01:50 1024 30.24 853 25.19 -3.7 25.4 61 -10.1 13.7
01:55 1024 30.24 853 25.19 -3.3 26.1 61 -9.7 14.6
02:00 1024 30.24 853 25.19 -3.2 26.2 61 -9.8 14.4
02:05 1024 30.24 853 25.19 -3 26.5 56 -10.5 13
02:10 1024 30.24 853 25.19 -2.9 26.8 60 -9.7 14.6
02:15 1024 30.24 853 25.19 -2.7 27.1 61 -9.2 15.4
02:20 1024 30.24 853 25.19 -2.2 28 60 -9 15.7
02:25 1024 30.24 853 25.19 -2.3 27.8 63 -8.5 16.6
02:30 1024 30.24 853 25.19 -2 28.3 58 -9.2 15.5
02:35 1024 30.24 853 25.19 -2 28.5 57 -9.3 15.3
02:40 1024 30.24 853 25.19 -2.3 27.9 64 -8.2 17.2
02:45 1024 30.24 853 25.19 -2.4 27.7 60 -9.2 15.5
02:50 1024 30.24 853 25.19 -2.2 28 60 -9 15.8
02:55 1024 30.24 853 25.19 -2.8 26.9 60 -9.5 14.9
03:00 1024 30.24 853 25.19 -3 26.5 65 -8.6 16.5
03:05 1024 30.24 853 25.19 -3.1 26.3 66 -8.6 16.5
03:10 1024 30.24 853 25.19 -3.3 26.1 65 -8.9 16
03:15 1024 30.24 853 25.19 -3.3 26 70 -8 17.6
03:20 1024 30.24 853 25.19 -3.3 26 64 -9.2 15.5
03:25 1024 30.24 853 25.19 -3 26.5 68 -8.2 17.2
03:30 1024 30.24 853 25.19 -2.9 26.8 70 -7.7 18.2
03:35 1024 30.24 853 25.19 -3.2 26.2 72 -7.6 18.3
03:40 1023 30.21 853 25.19 -3.4 25.8 72 -7.8 18
03:45 1023 30.21 853 25.19 -3.5 25.7 73 -7.6 18.4
03:50 1023 30.21 852 25.16 -3.4 25.9 72 -7.8 18
03:55 1023 30.21 852 25.16 -3.3 26.1 72 -7.6 18.3
04:00 1023 30.21 852 25.16 -3.3 26 72 -7.8 18
04:05 1023 30.21 852 25.16 -3.3 26 69 -8.3 17
04:10 1023 30.21 852 25.16 -2.8 26.9 65 -8.5 16.8
04:15 1023 30.21 852 25.16 -2.5 27.4 64 -8.5 16.6
04:20 1023 30.21 852 25.16 -2.5 27.5 62 -8.7 16.3
04:25 1023 30.21 852 25.16 -2.3 27.8 61 -8.9 16
04:30 1023 30.21 852 25.16 -2 28.3 61 -8.6 16.6
04:35 1023 30.21 852 25.16 -1.9 28.5 59 -8.8 16.1
04:40 1023 30.21 852 25.16 -1.8 28.7 59 -8.7 16.3
04:45 1023 30.21 852 25.16 -1.7 28.9 58 -8.9 16
04:50 1023 30.21 852 25.16 -1.6 29.2 59 -8.5 16.6
04:55 1023 30.21 852 25.16 -1.5 29.4 60 -8.2 17.2
05:00 1023 30.21 852 25.16 -1.4 29.4 59 -8.4 16.8
05:05 1022 30.18 852 25.16 -1.4 29.5 60 -8.1 17.3
05:10 1022 30.18 852 25.16 -1.5 29.3 60 -8.2 17.2
05:15 1022 30.18 852 25.16 -1.5 29.3 60 -8.3 17.1
05:20 1022 30.18 852 25.16 -1.4 29.5 60 -8.2 17.3
05:25 1022 30.18 852 25.16 -1.3 29.7 63 -7.5 18.5
05:30 1022 30.18 852 25.16 -1.4 29.4 64 -7.4 18.6
05:35 1022 30.18 852 25.16 -1.5 29.3 64 -7.5 18.6
05:40 1022 30.18 852 25.16 -1.5 29.3 65 -7.3 18.8
05:45 1022 30.18 852 25.16 -1.6 29.1 64 -7.6 18.3
05:50 1022 30.18 852 25.16 -1.7 29 68 -6.8 19.7
05:55 1022 30.18 852 25.16 -2.1 28.3 73 -6.4 20.5
06:00 1022 30.18 852 25.16 -1.9 28.6 73 -6.2 20.9
06:05 1022 30.18 851 25.13 -2 28.5 73 -6.1 20.9
06:10 1022 30.18 851 25.13 -1.8 28.8 72 -6.1 21
06:15 1022 30.18 851 25.13 -1.8 28.8 71 -6.3 20.7
06:20 1022 30.18 852 25.16 -1.9 28.6 74 -6 21.3
06:25 1022 30.18 851 25.13 -2.2 28.1 74 -6.2 20.8
06:30 1022 30.18 851 25.13 -2.3 27.9 71 -6.8 19.7
06:35 1022 30.18 851 25.13 -1.9 28.6 68 -7 19.5
06:40 1022 30.18 851 25.13 -1.9 28.6 70 -6.7 19.9
06:45 1022 30.18 851 25.13 -2.2 28.1 71 -6.7 20
06:50 1022 30.18 851 25.13 -2.5 27.6 69 -7.4 18.8
06:55 1022 30.18 851 25.13 -2.4 27.7 65 -8 17.5
07:00 1022 30.18 851 25.13 -2.2 28 64 -8.2 17.2
07:05 1022 30.18 851 25.13 -2.2 28.1 63 -8.3 17.1
07:10 1022 30.18 851 25.13 -2 28.3 64 -8 17.6
07:15 1022 30.18 851 25.13 -2.2 28.1 63 -8.2 17.2
07:20 1022 30.18 851 25.13 -2 28.4 63 -8.2 17.3
07:25 1022 30.18 851 25.13 -2 28.4 62 -8.3 17.1
07:30 1022 30.18 851 25.13 -2 28.3 60 -8.7 16.4
07:35 1022 30.18 851 25.13 -1.8 28.8 61 -8.3 17.1
07:40 1022 30.18 851 25.13 -1.8 28.8 65 -7.6 18.4
07:45 1022 30.18 851 25.13 -1.6 29.2 62 -7.9 17.8
07:50 1022 30.18 851 25.13 -1.3 29.6 61 -7.8 17.9
07:55 1022 30.18 851 25.13 -1.2 29.8 62 -7.6 18.3
08:00 1022 30.18 851 25.13 -1.1 30 60 -8 17.6
08:05 1022 30.18 851 25.13 -0.7 30.8 57 -8.2 17.3
08:10 1022 30.18 851 25.13 -0.3 31.5 56 -8.1 17.5
08:15 1022 30.18 851 25.13 -0.1 31.8 57 -7.6 18.3
08:20 1022 30.18 851 25.13 0.1 32.1 56 -7.7 18.2
08:25 1022 30.18 851 25.13 0.3 32.6 57 -7.3 18.9
08:30 1022 30.18 851 25.13 0.5 32.8 56 -7.3 18.9
08:35 1022 30.18 851 25.13 1.1 34.1 55 -6.9 19.6
08:40 1022 30.18 851 25.13 0.9 33.6 57 -6.7 19.9
08:45 1022 30.18 851 25.13 0.7 33.3 54 -7.4 18.6
08:50 1022 30.18 851 25.13 0.8 33.4 54 -7.6 18.4
08:55 1022 30.18 851 25.13 1.3 34.4 50 -7.8 17.9
09:00 1022 30.18 851 25.13 1.8 35.2 50 -7.6 18.4
09:05 1022 30.18 851 25.13 2 35.6 49 -7.8 18
09:10 1022 30.18 851 25.13 1.9 35.5 49 -7.7 18.1
09:15 1022 30.18 851 25.13 2.1 35.7 48 -7.9 17.8
09:20 1022 30.18 851 25.13 2.4 36.4 49 -7.3 18.9
09:25 1022 30.18 851 25.13 2.7 36.9 47 -7.6 18.3
09:30 1022 30.18 851 25.13 2.7 36.8 47 -7.6 18.4
09:35 1022 30.18 851 25.13 3.2 37.7 45 -7.7 18.1
09:40 1022 30.18 851 25.13 4.4 40 42 -7.3 18.8
09:45 1021 30.15 851 25.13 5.6 42.1 37 -8.1 17.4
09:50 1021 30.15 851 25.13 5.5 41.8 49 -4.4 24.1
09:55 1021 30.15 851 25.13 4.2 39.6 48 -5.8 21.5
10:00 1021 30.15 851 25.13 4.3 39.8 49 -5.6 22
10:05 1021 30.15 850 25.1 4.9 40.9 44 -6.3 20.7
10:10 1021 30.15 850 25.1 5.2 41.3 45 -5.8 21.6
10:15 1021 30.15 850 25.1 5.8 42.5 41 -6.5 20.2
10:20 1021 30.15 850 25.1 6 42.9 36 -7.8 17.9
10:25 1021 30.15 850 25.1 5.8 42.5 45 -5.4 22.4
10:30 1021 30.15 850 25.1 4.9 40.8 50 -4.8 23.4
10:35 1021 30.15 850 25.1 4.7 40.4 45 -6.1 20.9
10:40 1021 30.15 850 25.1 5.4 41.7 45 -5.5 22.1
10:45 1021 30.15 850 25.1 4.7 40.5 48 -5.5 22.2
10:50 1021 30.15 850 25.1 4.8 40.6 48 -5.3 22.5
10:55 1021 30.15 850 25.1 5.3 41.6 46 -5.4 22.2
11:00 1021 30.15 851 25.13 5.5 41.9 46 -5.1 22.8
11:05 1021 30.15 851 25.13 5.3 41.5 47 -5.1 22.9
11:10 1021 30.15 851 25.13 5.6 42 46 -5.3 22.5
11:15 1021 30.15 851 25.13 5.9 42.6 43 -5.7 21.7
11:20 1021 30.15 850 25.1 6.4 43.5 40 -6.3 20.6
11:25 1021 30.15 851 25.13 6.7 44.1 38 -6.6 20.1
11:30 1021 30.15 850 25.1 7.4 45.2 33 -7.9 17.7
11:35 1021 30.15 850 25.1 7.6 45.6 30 -8.8 16.1
11:40 1021 30.15 850 25.1 6.6 43.9 33 -8.7 16.4
11:45 1021 30.15 850 25.1 6 42.8 32 -9.3 15.2
11:50 1021 30.15 850 25.1 6.6 43.9 30 -9.7 14.6
11:55 1021 30.15 850 25.1 6.2 43.2 30 -9.9 14.1
12:00 1021 30.15 850 25.1 6.5 43.6 31 -9.5 14.8
12:05 1021 30.15 850 25.1 7.4 45.4 33 -7.8 18
12:10 1021 30.15 850 25.1 6.5 43.6 34 -8.1 17.4
12:15 1021 30.15 850 25.1 6.8 44.3 32 -8.9 16.1
12:20 1021 30.15 850 25.1 7.8 46 31 -8.2 17.2
12:25 1021 30.15 850 25.1 8.4 47.1 30 -8.1 17.5
12:30 1021 30.15 850 25.1 8.3 46.9 30 -8.4 16.9
12:35 1021 30.15 850 25.1 9.1 48.4 28 -8.5 16.8
12:40 1020 30.12 850 25.1 10 50 27 -8.1 17.3
12:45 1020 30.12 850 25.1 10.2 50.3 29 -7.2 19
12:50 1020 30.12 849 25.07 9.9 49.9 28 -7.8 18
12:55 1020 30.12 849 25.07 9.6 49.2 29 -7.5 18.6
13:00 1020 30.12 849 25.07 9.6 49.2 29 -7.5 18.5
13:05 1020 30.12 849 25.07 9.3 48.8 28 -8.1 17.4
13:10 1020 30.12 849 25.07 9.8 49.6 29 -7.3 18.8
13:15 1020 30.12 849 25.07 9.7 49.4 32 -6.2 20.8
13:20 1019 30.09 849 25.07 9 48.3 33 -6.5 20.3
13:25 1019 30.09 849 25.07 8.7 47.6 33 -6.8 19.8
13:30 1019 30.09 848 25.04 8.8 47.9 31 -7.3 18.9
13:35 1019 30.09 848 25.04 9.6 49.3 33 -5.9 21.4
13:40 1019 30.09 848 25.04 8.3 46.9 37 -5.6 21.9
13:45 1019 30.09 848 25.04 7.7 45.9 37 -6 21.1
13:50 1019 30.09 848 25.04 7.7 45.9 38 -5.8 21.5
13:55 1019 30.09 848 25.04 7.8 46 35 -6.8 19.7
14:00 1019 30.09 848 25.04 8.5 47.3 33 -6.7 19.9
14:05 1019 30.09 848 25.04 9 48.3 33 -6.5 20.4
14:10 1019 30.09 848 25.04 9.1 48.3 33 -6.5 20.2
14:15 1019 30.09 848 25.04 8.5 47.3 35 -6.1 21.1
14:20 1019 30.09 848 25.04 8.5 47.3 32 -7.1 19.2
14:25 1019 30.09 848 25.04 9.6 49.2 31 -6.6 20.2
14:30 1019 30.09 848 25.04 9.6 49.3 32 -6.3 20.6
14:35 1019 30.09 848 25.04 9.6 49.3 31 -6.7 19.9
14:40 1019 30.09 848 25.04 9.8 49.6 30 -7.2 19.1
14:45 1019 30.09 848 25.04 10 49.9 31 -6.2 20.9
14:50 1019 30.09 848 25.04 9.8 49.7 29 -7.4 18.7
14:55 1019 30.09 848 25.04 10.2 50.3 29 -7.2 19.1
15:00 1019 30.09 848 25.04 10.2 50.4 28 -7.4 18.6
15:05 1019 30.09 848 25.04 10.1 50.2 29 -7.2 19
15:10 1019 30.09 848 25.04 10.1 50.2 29 -7.2 19.1
15:15 1019 30.09 848 25.04 9.9 49.8 30 -7 19.5
15:20 1019 30.09 848 25.04 9.4 48.8 31 -6.8 19.8
15:25 1019 30.09 848 25.04 8.7 47.6 34 -6.4 20.6
15:30 1019 30.09 848 25.04 7.7 45.9 36 -6.2 20.8
15:35 1019 30.09 848 25.04 7.4 45.3 36 -6.8 19.8
15:40 1019 30.09 848 25.04 7.4 45.3 36 -6.7 20
15:45 1019 30.09 848 25.04 7.8 46 35 -6.6 20.1
15:50 1019 30.09 848 25.04 8.4 47.1 34 -6.7 20
15:55 1019 30.09 848 25.04 8.2 46.7 34 -6.9 19.5
16:00 1019 30.09 848 25.04 7.5 45.5 34 -7.5 18.5
16:05 1019 30.09 848 25.04 7.7 45.9 33 -7.7 18.2
16:10 1018 30.06 848 25.04 8.5 47.2 32 -7.3 18.8
16:15 1018 30.06 847 25.01 9.3 48.8 31 -6.8 19.7
16:20 1018 30.06 847 25.01 9.6 49.3 31 -6.7 19.9
16:25 1018 30.06 847 25.01 8.9 47.9 33 -6.5 20.3
16:30 1018 30.06 847 25.01 9.2 48.6 31 -7.1 19.3
16:35 1018 30.06 847 25.01 9.1 48.3 32 -6.6 20.2
16:40 1018 30.06 847 25.01 8.7 47.6 33 -6.7 19.9
16:45 1018 30.06 847 25.01 8.6 47.4 35 -6.2 20.9
16:50 1018 30.06 847 25.01 8.5 47.2 35 -6.2 20.8
16:55 1018 30.06 847 25.01 8.4 47.2 36 -5.8 21.6
17:00 1018 30.06 847 25.01 8.3 46.9 37 -5.6 21.9
17:05 1018 30.06 848 25.04 8.2 46.8 37 -5.5 22.2
17:10 1018 30.06 847 25.01 8.9 48 34 -5.9 21.3
17:15 1018 30.06 847 25.01 8.8 47.8 37 -5.2 22.7
17:20 1018 30.06 847 25.01 8.4 47.1 37 -5.4 22.3
17:25 1018 30.06 847 25.01 7.8 46.1 39 -5.1 22.8
17:30 1018 30.06 847 25.01 7.6 45.7 40 -5.2 22.6
17:35 1018 30.06 847 25.01 7.8 46 38 -5.7 21.7
17:40 1018 30.06 847 25.01 7.5 45.4 40 -5.2 22.7
17:45 1018 30.06 847 25.01 7.1 44.9 43 -4.7 23.5
17:50 1018 30.06 847 25.01 6.9 44.5 41 -5.3 22.5
17:55 1018 30.06 847 25.01 6.8 44.2 41 -5.6 22
18:00 1018 30.06 847 25.01 6.8 44.2 43 -4.9 23.2
18:05 1018 30.06 847 25.01 6.9 44.5 41 -5.4 22.2
18:10 1018 30.06 847 25.01 6.8 44.2 42 -5.1 22.8
18:15 1018 30.06 847 25.01 6.8 44.2 42 -5.1 22.7
18:20 1018 30.06 847 25.01 7 44.6 45 -4.2 24.5
18:25 1018 30.06 847 25.01 6.8 44.2 50 -2.8 26.9
18:30 1018 30.06 847 25.01 5.8 42.4 55 -2.5 27.6
18:35 1018 30.06 847 25.01 5.1 41.2 56 -2.9 26.7
18:40 1018 30.06 847 25.01 4.7 40.5 58 -2.8 26.9
18:45 1018 30.06 847 25.01 4.5 40.1 59 -2.8 26.9
18:50 1018 30.06 847 25.01 4.3 39.8 59 -3 26.6
18:55 1018 30.06 847 25.01 4.1 39.3 61 -2.7 27.2
19:00 1018 30.06 847 25.01 3.7 38.6 61 -3.2 26.2
19:05 1018 30.06 847 25.01 4.2 39.6 53 -4.4 24
19:10 1018 30.06 847 25.01 5 40.9 46 -5.8 21.5
19:15 1018 30.06 847 25.01 5.4 41.7 48 -4.9 23.2
19:20 1018 30.06 847 25.01 5.2 41.4 48 -5 23
19:25 1018 30.06 847 25.01 4.9 40.8 50 -4.7 23.6
19:30 1018 30.06 847 25.01 4.7 40.4 51 -4.6 23.6
19:35 1018 30.06 847 25.01 4.8 40.7 49 -4.9 23.1
19:40 1018 30.06 847 25.01 4.9 40.9 49 -4.9 23.2
19:45 1018 30.06 847 25.01 5.1 41.2 48 -5.1 22.8
19:50 1018 30.06 847 25.01 5.5 41.8 46 -5.1 22.8
19:55 1018 30.06 847 25.01 5.6 42 44 -5.6 21.9
20:00 1018 30.06 847 25.01 5.6 42.1 46 -5.2 22.6
20:05 1017 30.03 847 25.01 5.6 42 46 -5.2 22.6
20:10 1017 30.03 847 25.01 5.8 42.5 43 -5.9 21.4
20:15 1017 30.03 847 25.01 5.9 42.6 44 -5.3 22.4
20:20 1017 30.03 847 25.01 5.7 42.3 44 -5.7 21.7
20:25 1017 30.03 846 24.98 5.7 42.3 44 -5.7 21.7
20:30 1017 30.03 847 25.01 5.6 42.1 45 -5.5 22.1
20:35 1017 30.03 846 24.98 5.6 42 42 -6.4 20.5
20:40 1017 30.03 846 24.98 5.9 42.7 41 -6.2 20.8
20:45 1017 30.03 846 24.98 5.8 42.5 42 -6.2 20.8
20:50 1017 30.03 846 24.98 5.7 42.3 41 -6.4 20.5
20:55 1017 30.03 846 24.98 5.8 42.4 42 -6.2 20.8
21:00 1017 30.03 846 24.98 5.8 42.5 41 -6.5 20.4
21:05 1017 30.03 846 24.98 5.9 42.6 40 -6.8 19.8
21:10 1017 30.03 846 24.98 6 42.7 41 -6.4 20.5
21:15 1017 30.03 846 24.98 6 42.7 40 -6.6 20
21:20 1017 30.03 846 24.98 6.1 43 38 -7.1 19.3
21:25 1017 30.03 847 25.01 6.2 43.1 40 -6.6 20.1
21:30 1017 30.03 846 24.98 5.7 42.3 41 -6.6 20.1
21:35 1017 30.03 847 25.01 5.6 42.2 40 -6.9 19.5
21:40 1017 30.03 847 25.01 5.8 42.4 40 -6.9 19.5
21:45 1017 30.03 846 24.98 5.9 42.6 38 -7.4 18.7
21:50 1017 30.03 846 24.98 5.9 42.6 38 -7.3 18.8
21:55 1017 30.03 846 24.98 6.1 42.9 38 -7.3 18.9
22:00 1017 30.03 846 24.98 6 42.8 38 -7.3 18.8
22:05 1017 30.03 846 24.98 6 42.7 38 -7.4 18.6
22:10 1017 30.03 846 24.98 5.8 42.5 39 -7 19.3
22:15 1017 30.03 846 24.98 5.5 42 41 -6.8 19.7
22:20 1017 30.03 846 24.98 5.1 41.3 43 -6.5 20.4
22:25 1017 30.03 846 24.98 4.8 40.6 42 -7 19.5
22:30 1017 30.03 846 24.98 4.8 40.7 43 -6.8 19.8
22:35 1017 30.03 846 24.98 4.8 40.6 42 -7.2 19.1
22:40 1017 30.03 846 24.98 4.9 40.9 41 -7.4 18.7
22:45 1017 30.03 846 24.98 5.1 41.1 40 -7.5 18.5
22:50 1017 30.03 847 25.01 5.3 41.6 39 -7.5 18.5
22:55 1017 30.03 846 24.98 5.5 41.8 37 -8.1 17.5
23:00 1017 30.03 846 24.98 5.6 42.1 38 -7.6 18.3
23:05 1017 30.03 846 24.98 5.4 41.7 39 -7.6 18.3
23:10 1017 30.03 846 24.98 4.9 40.8 43 -6.7 20
23:15 1017 30.03 846 24.98 4.4 39.9 45 -6.5 20.3
23:20 1017 30.03 846 24.98 4.2 39.5 47 -6 21.2
23:25 1017 30.03 846 24.98 4.1 39.4 49 -5.6 21.9
23:30 1017 30.03 846 24.98 3.8 38.8 45 -7.1 19.3
23:35 1017 30.03 846 24.98 4.5 40.1 41 -7.7 18.2
23:40 1017 30.03 846 24.98 5.2 41.3 42 -6.7 20
23:45 1017 30.03 846 24.98 5 41 44 -6.3 20.7
23:50 1017 30.03 846 24.98 4.6 40.3 40 -7.7 18.1
23:55 1017 30.03 846 24.98 4.8 40.7 41 -7.2 19.1
24:00 1017 30.03 846 24.98 4.6 40.3 41 -7.5 18.6